Terminal Aerodrome Forecast
Issued by NWS

Home | Current Version | Previous Version | Text Only | Print | Product List | Glossary On
Versions: 1 2 3 4 5 6 7 8 9 10 11 12 13 14 15 16 17 18 19 20 21 22 23 24 25 26 27 28 29 30 31 32 33 34 35 36 37 38 39 40 41 42 43 44 45 46 47 48 49 50
000
FTAK31 PAFA 211127
TAFAQT
TAF
PAQT 211127Z 2112/2212 05028G38KT 5SM -SHSN BLSN BR OVC010
      TEMPO 2112/2115 1SM -FZDZSN BLSN BR OVC008
     FM211900 06027G35KT 3SM -SHSN BR SCT008 OVC015
     FM220400 06030G40KT 1SM -SHSN BLSN BR OVC008=

USA.gov is the U.S. government's official web portal to all federal, state and local government web resources and services.